Dakota, IL (61018)

5:31 PM CDT on May 27, 2015 (GMT -0500)
APRSWXNET | | Change Station
CLOSE
Current Station
Personal Weather Station
Location: Freeport, IL
Elevation: 777 ft
Nearby Weather Stations

Elev 777 ft 42.33 °N, 89.63 °W | Updated 18 minutes ago

Clear
Clear
77 °F
Feels Like 79 °F
N
2
Wind Variable Wind from WNW
Gusts 7.0 mph

Today
High -- | Low -- °F
--% Chance of Precip.
Yesterday
High -- | Low -- °F
Precip. -- in
5:26 AM 8:24 PM
Waxing Gibbous, 70% visible
Pressure 30.07 in
Visibility 10.0 miles
Clouds Scattered Clouds 4900 ft
Heat Index 79 °F
Dew Point 60 °F
Humidity 56%
Rainfall in
Snow Depth Not available.
UV 3 out of 12
Pollen 9.20 out of 12
Air Quality Not available.
Flu Activity Sporadic
METAR KFEP 272215Z AUTO 29007KT 10SM SCT049 24/14 A3007 RMK AO2 T02360139

More Conditions Fewer Conditions

Pressure 30.07 in
Visibility 10.0 miles
Clouds Scattered Clouds 4900 ft
Heat Index 79 °F
Dew Point 60 °F
Humidity 56%
Rainfall in
Snow Depth Not available.
UV 3 out of 12
Pollen 9.20 out of 12
Air Quality Not available.
Flu Activity Sporadic
METAR KFEP 272215Z AUTO 29007KT 10SM SCT049 24/14 A3007 RMK AO2 T02360139

More Conditions Fewer Conditions

10-Day Weather Forecast

Almanac

Astronomy

May. 27, 2015 Rise Set
Actual Time
Civil Twilight
Nautical Twilight
Astronomical Twilight
Moon
Length of Visible Light
Length of Day
Tomorrow will be .
, % of the Moon is Illuminated

Today's Extremes

State Highs State Lows

Community

WunderPhotos

Upload Photos

1,824,813 photos uploaded!

WunderBlogs® & News

Nearby

Air Quality

  Air Quality AQ Index Pollutant
Not available.

Snow Depth

Station Depth Elevation

Earthquake Activity

City Distance Mag. Time & Date
Minimum magnitude displayed is 2.5.

Coastal Water Temperatures

Place Temperature

Stations

Nearby Weather Stations

Station Location Temp. Windchill Dew Point Humidity Wind Precip. Elev Updated Type